sensor_id;sensor_type;location;lat;lon;timestamp;temperature;humidity
21625;DHT22;10974;51.034;3.744;2022-10-23T04:00:15;14.40;99.90
21625;DHT22;10974;51.034;3.744;2022-10-23T04:02:41;14.40;99.90
21625;DHT22;10974;51.034;3.744;2022-10-23T04:05:07;14.30;99.90
21625;DHT22;10974;51.034;3.744;2022-10-23T04:07:33;14.30;99.90
21625;DHT22;10974;51.034;3.744;2022-10-23T04:09:58;14.40;99.90
21625;DHT22;10974;51.034;3.744;2022-10-23T04:12:24;14.50;99.90
21625;DHT22;10974;51.034;3.744;2022-10-23T04:14:50;14.50;99.90
21625;DHT22;10974;51.034;3.744;2022-10-23T04:17:15;14.50;99.90
21625;DHT22;10974;51.034;3.744;2022-10-23T04:19:41;14.40;99.90
21625;DHT22;10974;51.034;3.744;2022-10-23T04:22:07;14.40;99.90
21625;DHT22;10974;51.034;3.744;2022-10-23T04:24:32;14.40;99.90
21625;DHT22;10974;51.034;3.744;2022-10-23T04:26:58;14.40;99.90
21625;DHT22;10974;51.034;3.744;2022-10-23T04:29:24;14.40;99.90
21625;DHT22;10974;51.034;3.744;2022-10-23T04:31:50;14.50;99.90
21625;DHT22;10974;51.034;3.744;2022-10-23T04:34:17;14.40;99.90
21625;DHT22;10974;51.034;3.744;2022-10-23T04:36:42;14.40;99.90
21625;DHT22;10974;51.034;3.744;2022-10-23T04:39:09;14.50;99.90
21625;DHT22;10974;51.034;3.744;2022-10-23T04:41:34;14.50;99.90
21625;DHT22;10974;51.034;3.744;2022-10-23T04:44:01;14.50;99.90
21625;DHT22;10974;51.034;3.744;2022-10-23T04:46:27;14.50;99.90
21625;DHT22;10974;51.034;3.744;2022-10-23T04:48:52;14.40;99.90
21625;DHT22;10974;51.034;3.744;2022-10-23T04:51:18;14.40;99.90
21625;DHT22;10974;51.034;3.744;2022-10-23T04:53:44;14.40;99.90
21625;DHT22;10974;51.034;3.744;2022-10-23T04:56:13;14.30;99.90
21625;DHT22;10974;51.034;3.744;2022-10-23T04:58:40;14.30;99.90
21625;DHT22;10974;51.034;3.744;2022-10-23T05:01:07;14.30;99.90
21625;DHT22;10974;51.034;3.744;2022-10-23T05:03:35;14.20;99.90
21625;DHT22;10974;51.034;3.744;2022-10-23T05:06:01;14.30;99.90
21625;DHT22;10974;51.034;3.744;2022-10-23T05:08:27;14.30;99.90
21625;DHT22;10974;51.034;3.744;2022-10-23T05:10:52;14.30;99.90
21625;DHT22;10974;51.034;3.744;2022-10-23T05:13:18;14.30;99.90
21625;DHT22;10974;51.034;3.744;2022-10-23T05:15:49;14.20;99.90
21625;DHT22;10974;51.034;3.744;2022-10-23T05:21:10;14.20;99.90
21625;DHT22;10974;51.034;3.744;2022-10-23T05:23:40;14.20;99.90
21625;DHT22;10974;51.034;3.744;2022-10-23T05:26:06;14.20;99.90
21625;DHT22;10974;51.034;3.744;2022-10-23T05:28:32;14.20;99.90
21625;DHT22;10974;51.034;3.744;2022-10-23T05:30:59;14.20;99.90
21625;DHT22;10974;51.034;3.744;2022-10-23T05:33:25;14.20;99.90
21625;DHT22;10974;51.034;3.744;2022-10-23T05:35:51;14.20;99.90
21625;DHT22;10974;51.034;3.744;2022-10-23T05:38:17;14.20;99.90
21625;DHT22;10974;51.034;3.744;2022-10-23T05:40:43;14.30;99.90
21625;DHT22;10974;51.034;3.744;2022-10-23T05:43:09;14.10;99.90
21625;DHT22;10974;51.034;3.744;2022-10-23T05:45:34;14.20;99.90
21625;DHT22;10974;51.034;3.744;2022-10-23T05:48:00;14.20;99.90
21625;DHT22;10974;51.034;3.744;2022-10-23T05:50:26;14.20;99.90
21625;DHT22;10974;51.034;3.744;2022-10-23T05:52:51;14.20;99.90
21625;DHT22;10974;51.034;3.744;2022-10-23T05:55:17;14.30;99.90
21625;DHT22;10974;51.034;3.744;2022-10-23T05:57:42;14.30;99.90
21625;DHT22;10974;51.034;3.744;2022-10-23T06:00:09;14.70;99.90
21625;DHT22;10974;51.034;3.744;2022-10-23T06:02:35;15.70;99.90
21625;DHT22;10974;51.034;3.744;2022-10-23T06:05:00;16.50;99.90
21625;DHT22;10974;51.034;3.744;2022-10-23T06:07:27;17.10;99.90
21625;DHT22;10974;51.034;3.744;2022-10-23T06:09:53;17.60;99.90
21625;DHT22;10974;51.034;3.744;2022-10-23T06:12:20;18.00;99.90
21625;DHT22;10974;51.034;3.744;2022-10-23T06:14:46;18.30;99.90
21625;DHT22;10974;51.034;3.744;2022-10-23T06:17:12;18.50;99.90
21625;DHT22;10974;51.034;3.744;2022-10-23T06:19:38;18.70;99.90
21625;DHT22;10974;51.034;3.744;2022-10-23T06:22:04;18.70;99.90
21625;DHT22;10974;51.034;3.744;2022-10-23T06:24:30;18.80;99.90
21625;DHT22;10974;51.034;3.744;2022-10-23T06:26:55;18.80;99.90
21625;DHT22;10974;51.034;3.744;2022-10-23T06:29:21;18.60;99.90
21625;DHT22;10974;51.034;3.744;2022-10-23T06:31:47;17.60;99.90
21625;DHT22;10974;51.034;3.744;2022-10-23T06:34:13;17.20;99.90
21625;DHT22;10974;51.034;3.744;2022-10-23T06:36:39;17.00;99.90
21625;DHT22;10974;51.034;3.744;2022-10-23T06:39:04;16.90;99.90
21625;DHT22;10974;51.034;3.744;2022-10-23T06:41:30;16.80;99.90
21625;DHT22;10974;51.034;3.744;2022-10-23T06:43:56;16.70;99.90
21625;DHT22;10974;51.034;3.744;2022-10-23T06:46:21;16.70;99.90
21625;DHT22;10974;51.034;3.744;2022-10-23T06:48:47;16.70;99.90
21625;DHT22;10974;51.034;3.744;2022-10-23T06:51:15;16.70;99.90
21625;DHT22;10974;51.034;3.744;2022-10-23T06:53:42;16.70;99.90
21625;DHT22;10974;51.034;3.744;2022-10-23T06:56:09;16.70;99.90
21625;DHT22;10974;51.034;3.744;2022-10-23T06:58:36;16.80;99.90
21625;DHT22;10974;51.034;3.744;2022-10-23T07:01:04;16.80;99.90
21625;DHT22;10974;51.034;3.744;2022-10-23T07:03:30;16.80;99.90
21625;DHT22;10974;51.034;3.744;2022-10-23T07:06:02;16.80;99.90
21625;DHT22;10974;51.034;3.744;2022-10-23T07:08:28;16.80;99.90
21625;DHT22;10974;51.034;3.744;2022-10-23T07:10:54;17.00;99.90
21625;DHT22;10974;51.034;3.744;2022-10-23T07:13:19;17.00;99.90
21625;DHT22;10974;51.034;3.744;2022-10-23T07:15:46;16.90;99.90
21625;DHT22;10974;51.034;3.744;2022-10-23T07:18:12;16.90;99.90
21625;DHT22;10974;51.034;3.744;2022-10-23T07:20:41;16.80;99.90
21625;DHT22;10974;51.034;3.744;2022-10-23T07:23:07;16.90;99.90
21625;DHT22;10974;51.034;3.744;2022-10-23T07:25:33;16.90;99.90
21625;DHT22;10974;51.034;3.744;2022-10-23T07:27:59;16.90;99.90
21625;DHT22;10974;51.034;3.744;2022-10-23T07:30:24;17.00;99.90
21625;DHT22;10974;51.034;3.744;2022-10-23T07:32:50;17.40;99.90
21625;DHT22;10974;51.034;3.744;2022-10-23T07:35:16;17.40;99.90
21625;DHT22;10974;51.034;3.744;2022-10-23T07:37:42;17.30;99.90
21625;DHT22;10974;51.034;3.744;2022-10-23T07:40:08;17.20;99.90
21625;DHT22;10974;51.034;3.744;2022-10-23T07:42:34;17.20;99.90
21625;DHT22;10974;51.034;3.744;2022-10-23T07:45:00;17.20;99.90
21625;DHT22;10974;51.034;3.744;2022-10-23T07:47:25;17.10;99.90
21625;DHT22;10974;51.034;3.744;2022-10-23T07:49:51;17.10;99.90
21625;DHT22;10974;51.034;3.744;2022-10-23T07:52:17;17.50;99.90
21625;DHT22;10974;51.034;3.744;2022-10-23T07:54:43;17.50;99.90
21625;DHT22;10974;51.034;3.744;2022-10-23T07:57:09;17.30;99.90
21625;DHT22;10974;51.034;3.744;2022-10-23T07:59:36;17.20;99.90
21625;DHT22;10974;51.034;3.744;2022-10-23T08:02:02;17.10;99.90
21625;DHT22;10974;51.034;3.744;2022-10-23T08:04:28;17.10;99.90
21625;DHT22;10974;51.034;3.744;2022-10-23T08:06:54;17.10;99.90
21625;DHT22;10974;51.034;3.744;2022-10-23T08:09:20;17.10;99.90
21625;DHT22;10974;51.034;3.744;2022-10-23T08:11:46;17.10;99.90
21625;DHT22;10974;51.034;3.744;2022-10-23T08:14:12;17.00;99.90
21625;DHT22;10974;51.034;3.744;2022-10-23T08:16:38;17.00;99.90
21625;DHT22;10974;51.034;3.744;2022-10-23T08:19:05;17.00;99.90
21625;DHT22;10974;51.034;3.744;2022-10-23T08:21:32;17.10;99.90
21625;DHT22;10974;51.034;3.744;2022-10-23T08:23:59;17.50;99.90
21625;DHT22;10974;51.034;3.744;2022-10-23T08:26:25;17.20;99.90
21625;DHT22;10974;51.034;3.744;2022-10-23T08:28:52;17.20;99.90
21625;DHT22;10974;51.034;3.744;2022-10-23T08:31:19;17.20;99.90
21625;DHT22;10974;51.034;3.744;2022-10-23T08:33:45;17.10;99.90
21625;DHT22;10974;51.034;3.744;2022-10-23T08:36:25;17.10;99.90
21625;DHT22;10974;51.034;3.744;2022-10-23T08:38:53;17.10;99.90
21625;DHT22;10974;51.034;3.744;2022-10-23T08:46:45;17.20;99.90
21625;DHT22;10974;51.034;3.744;2022-10-23T08:52:36;17.20;99.90
21625;DHT22;10974;51.034;3.744;2022-10-23T08:55:26;17.10;99.90
21625;DHT22;10974;51.034;3.744;2022-10-23T08:58:04;17.20;99.90
21625;DHT22;10974;51.034;3.744;2022-10-23T09:00:32;17.20;99.90
21625;DHT22;10974;51.034;3.744;2022-10-23T09:03:01;17.20;99.90
21625;DHT22;10974;51.034;3.744;2022-10-23T09:05:31;17.20;99.90
21625;DHT22;10974;51.034;3.744;2022-10-23T09:11:33;17.20;99.90
21625;DHT22;10974;51.034;3.744;2022-10-23T09:18:56;17.30;99.90
21625;DHT22;10974;51.034;3.744;2022-10-23T09:21:26;17.30;99.90
21625;DHT22;10974;51.034;3.744;2022-10-23T09:23:52;17.40;99.90
21625;DHT22;10974;51.034;3.744;2022-10-23T09:26:18;17.40;99.90
21625;DHT22;10974;51.034;3.744;2022-10-23T09:29:13;17.50;99.90
21625;DHT22;10974;51.034;3.744;2022-10-23T09:31:56;17.50;99.90
21625;DHT22;10974;51.034;3.744;2022-10-23T09:34:25;17.40;99.90
21625;DHT22;10974;51.034;3.744;2022-10-23T09:36:54;17.50;99.90
21625;DHT22;10974;51.034;3.744;2022-10-23T09:39:23;17.50;99.90
21625;DHT22;10974;51.034;3.744;2022-10-23T09:41:49;17.50;99.90
21625;DHT22;10974;51.034;3.744;2022-10-23T09:44:21;17.60;99.90
21625;DHT22;10974;51.034;3.744;2022-10-23T09:46:49;17.50;99.90
21625;DHT22;10974;51.034;3.744;2022-10-23T09:49:17;17.50;99.90
21625;DHT22;10974;51.034;3.744;2022-10-23T09:54:38;17.60;99.90
21625;DHT22;10974;51.034;3.744;2022-10-23T09:57:26;17.60;99.90
21625;DHT22;10974;51.034;3.744;2022-10-23T10:00:24;17.20;99.90
21625;DHT22;10974;51.034;3.744;2022-10-23T10:03:00;16.70;99.90
21625;DHT22;10974;51.034;3.744;2022-10-23T10:05:29;16.50;99.90
21625;DHT22;10974;51.034;3.744;2022-10-23T10:07:59;16.60;99.90
21625;DHT22;10974;51.034;3.744;2022-10-23T10:10:32;16.60;99.90
21625;DHT22;10974;51.034;3.744;2022-10-23T10:13:06;16.60;99.90
21625;DHT22;10974;51.034;3.744;2022-10-23T10:16:00;16.70;99.90
21625;DHT22;10974;51.034;3.744;2022-10-23T10:18:56;16.70;99.90
21625;DHT22;10974;51.034;3.744;2022-10-23T10:21:20;16.90;99.90
21625;DHT22;10974;51.034;3.744;2022-10-23T10:23:53;16.90;99.90
21625;DHT22;10974;51.034;3.744;2022-10-23T10:29:47;17.00;99.90
21625;DHT22;10974;51.034;3.744;2022-10-23T10:38:11;17.10;99.90
21625;DHT22;10974;51.034;3.744;2022-10-23T10:40:50;17.20;99.90
21625;DHT22;10974;51.034;3.744;2022-10-23T10:51:07;17.40;99.90
21625;DHT22;10974;51.034;3.744;2022-10-23T10:56:14;17.50;99.90
21625;DHT22;10974;51.034;3.744;2022-10-23T10:58:51;17.60;99.90
21625;DHT22;10974;51.034;3.744;2022-10-23T11:01:33;17.70;99.90
21625;DHT22;10974;51.034;3.744;2022-10-23T11:04:13;17.80;99.90
21625;DHT22;10974;51.034;3.744;2022-10-23T11:06:45;17.90;99.90
21625;DHT22;10974;51.034;3.744;2022-10-23T11:09:28;17.90;99.90
21625;DHT22;10974;51.034;3.744;2022-10-23T11:11:55;18.10;99.90
21625;DHT22;10974;51.034;3.744;2022-10-23T11:14:30;18.10;99.90
21625;DHT22;10974;51.034;3.744;2022-10-23T11:17:07;18.20;99.90
21625;DHT22;10974;51.034;3.744;2022-10-23T11:19:39;18.30;99.90
21625;DHT22;10974;51.034;3.744;2022-10-23T11:30:21;18.70;99.90
21625;DHT22;10974;51.034;3.744;2022-10-23T11:32:56;18.90;99.90
21625;DHT22;10974;51.034;3.744;2022-10-23T11:35:47;18.90;99.90
21625;DHT22;10974;51.034;3.744;2022-10-23T11:38:27;19.00;99.90
21625;DHT22;10974;51.034;3.744;2022-10-23T11:41:31;19.20;99.90
21625;DHT22;10974;51.034;3.744;2022-10-23T11:43:52;19.30;99.90
21625;DHT22;10974;51.034;3.744;2022-10-23T11:48:49;19.30;99.90
21625;DHT22;10974;51.034;3.744;2022-10-23T11:51:33;19.20;99.90
21625;DHT22;10974;51.034;3.744;2022-10-23T11:54:20;19.30;99.90
21625;DHT22;10974;51.034;3.744;2022-10-23T12:02:30;19.30;99.90
21625;DHT22;10974;51.034;3.744;2022-10-23T12:05:04;19.30;99.90
21625;DHT22;10974;51.034;3.744;2022-10-23T12:07:35;19.40;99.90
21625;DHT22;10974;51.034;3.744;2022-10-23T12:10:46;19.40;99.90
21625;DHT22;10974;51.034;3.744;2022-10-23T12:13:25;19.40;99.90
21625;DHT22;10974;51.034;3.744;2022-10-23T12:15:54;19.40;99.90
21625;DHT22;10974;51.034;3.744;2022-10-23T12:18:20;19.60;99.90
21625;DHT22;10974;51.034;3.744;2022-10-23T12:20:50;19.70;99.90
21625;DHT22;10974;51.034;3.744;2022-10-23T12:28:58;20.00;99.90
21625;DHT22;10974;51.034;3.744;2022-10-23T12:37:05;20.10;99.90
21625;DHT22;10974;51.034;3.744;2022-10-23T12:39:34;20.20;99.90
21625;DHT22;10974;51.034;3.744;2022-10-23T12:42:26;20.70;99.90
21625;DHT22;10974;51.034;3.744;2022-10-23T12:45:15;20.70;99.90
21625;DHT22;10974;51.034;3.744;2022-10-23T12:47:43;20.90;99.90
21625;DHT22;10974;51.034;3.744;2022-10-23T12:50:35;20.80;99.90
21625;DHT22;10974;51.034;3.744;2022-10-23T12:53:03;20.90;99.90
21625;DHT22;10974;51.034;3.744;2022-10-23T12:58:54;21.00;99.90
21625;DHT22;10974;51.034;3.744;2022-10-23T13:01:27;20.90;99.90
21625;DHT22;10974;51.034;3.744;2022-10-23T13:04:29;20.80;99.90
21625;DHT22;10974;51.034;3.744;2022-10-23T13:06:57;20.70;99.90
21625;DHT22;10974;51.034;3.744;2022-10-23T13:09:28;20.60;99.90
21625;DHT22;10974;51.034;3.744;2022-10-23T13:11:55;20.60;99.90
21625;DHT22;10974;51.034;3.744;2022-10-23T13:17:06;20.60;99.90
21625;DHT22;10974;51.034;3.744;2022-10-23T13:19:32;20.50;99.90
21625;DHT22;10974;51.034;3.744;2022-10-23T13:21:59;20.50;99.90
21625;DHT22;10974;51.034;3.744;2022-10-23T13:24:27;20.50;99.90
21625;DHT22;10974;51.034;3.744;2022-10-23T13:26:53;20.50;99.90
21625;DHT22;10974;51.034;3.744;2022-10-23T13:29:28;20.60;99.90
21625;DHT22;10974;51.034;3.744;2022-10-23T13:31:56;20.60;99.90
21625;DHT22;10974;51.034;3.744;2022-10-23T13:34:27;20.60;99.90
21625;DHT22;10974;51.034;3.744;2022-10-23T13:37:01;20.50;99.90
21625;DHT22;10974;51.034;3.744;2022-10-23T13:39:29;20.70;99.90
21625;DHT22;10974;51.034;3.744;2022-10-23T13:41:58;20.70;99.90
21625;DHT22;10974;51.034;3.744;2022-10-23T13:44:25;20.70;99.90
21625;DHT22;10974;51.034;3.744;2022-10-23T13:46:51;20.80;99.90
21625;DHT22;10974;51.034;3.744;2022-10-23T13:49:18;20.60;99.90
21625;DHT22;10974;51.034;3.744;2022-10-23T13:51:53;20.60;99.90
21625;DHT22;10974;51.034;3.744;2022-10-23T13:54:22;20.60;99.90
21625;DHT22;10974;51.034;3.744;2022-10-23T13:56:49;20.50;99.90
21625;DHT22;10974;51.034;3.744;2022-10-23T13:59:15;20.50;99.90
21625;DHT22;10974;51.034;3.744;2022-10-23T14:01:43;20.50;99.90
21625;DHT22;10974;51.034;3.744;2022-10-23T14:04:12;20.40;99.90
21625;DHT22;10974;51.034;3.744;2022-10-23T14:06:38;20.50;99.90
21625;DHT22;10974;51.034;3.744;2022-10-23T14:09:05;20.30;99.90
21625;DHT22;10974;51.034;3.744;2022-10-23T14:11:33;20.40;99.90
21625;DHT22;10974;51.034;3.744;2022-10-23T14:13:59;20.30;99.90
21625;DHT22;10974;51.034;3.744;2022-10-23T14:16:25;20.30;99.90
21625;DHT22;10974;51.034;3.744;2022-10-23T14:18:51;20.30;99.90
21625;DHT22;10974;51.034;3.744;2022-10-23T14:21:19;20.20;99.90
21625;DHT22;10974;51.034;3.744;2022-10-23T14:23:46;20.20;99.90
21625;DHT22;10974;51.034;3.744;2022-10-23T14:26:14;20.10;99.90
21625;DHT22;10974;51.034;3.744;2022-10-23T14:28:41;20.20;99.90
21625;DHT22;10974;51.034;3.744;2022-10-23T14:31:12;20.10;99.90
21625;DHT22;10974;51.034;3.744;2022-10-23T14:33:39;20.00;99.90
21625;DHT22;10974;51.034;3.744;2022-10-23T14:36:05;20.00;99.90
21625;DHT22;10974;51.034;3.744;2022-10-23T14:38:31;20.00;99.90
21625;DHT22;10974;51.034;3.744;2022-10-23T14:40:57;20.00;99.90
21625;DHT22;10974;51.034;3.744;2022-10-23T14:43:24;19.90;99.90
21625;DHT22;10974;51.034;3.744;2022-10-23T14:45:50;19.90;99.90
21625;DHT22;10974;51.034;3.744;2022-10-23T14:48:16;19.80;99.90
21625;DHT22;10974;51.034;3.744;2022-10-23T14:50:45;19.80;99.90
21625;DHT22;10974;51.034;3.744;2022-10-23T14:53:11;19.70;99.90
21625;DHT22;10974;51.034;3.744;2022-10-23T14:55:36;19.80;99.90
21625;DHT22;10974;51.034;3.744;2022-10-23T14:58:02;19.80;99.90
21625;DHT22;10974;51.034;3.744;2022-10-23T15:00:28;19.80;99.90
21625;DHT22;10974;51.034;3.744;2022-10-23T15:02:54;19.80;99.90
21625;DHT22;10974;51.034;3.744;2022-10-23T15:05:20;19.70;99.90
21625;DHT22;10974;51.034;3.744;2022-10-23T15:07:45;19.70;99.90
21625;DHT22;10974;51.034;3.744;2022-10-23T15:10:11;19.70;99.90
21625;DHT22;10974;51.034;3.744;2022-10-23T15:12:37;19.70;99.90
21625;DHT22;10974;51.034;3.744;2022-10-23T15:15:05;19.70;99.90
21625;DHT22;10974;51.034;3.744;2022-10-23T15:17:31;19.70;99.90
21625;DHT22;10974;51.034;3.744;2022-10-23T15:19:59;19.80;99.90
21625;DHT22;10974;51.034;3.744;2022-10-23T15:22:26;19.80;99.90
21625;DHT22;10974;51.034;3.744;2022-10-23T15:24:51;19.80;99.90
21625;DHT22;10974;51.034;3.744;2022-10-23T15:27:17;19.90;99.90
21625;DHT22;10974;51.034;3.744;2022-10-23T15:29:44;19.90;99.90
21625;DHT22;10974;51.034;3.744;2022-10-23T15:32:10;19.90;99.90
21625;DHT22;10974;51.034;3.744;2022-10-23T15:34:36;19.90;99.90
21625;DHT22;10974;51.034;3.744;2022-10-23T15:37:03;19.90;99.90
21625;DHT22;10974;51.034;3.744;2022-10-23T15:39:30;19.90;99.90
21625;DHT22;10974;51.034;3.744;2022-10-23T15:42:04;19.90;99.90
21625;DHT22;10974;51.034;3.744;2022-10-23T15:44:31;19.90;99.90
21625;DHT22;10974;51.034;3.744;2022-10-23T15:46:57;19.80;99.90
21625;DHT22;10974;51.034;3.744;2022-10-23T15:49:23;19.80;99.90
21625;DHT22;10974;51.034;3.744;2022-10-23T15:51:49;19.70;99.90
21625;DHT22;10974;51.034;3.744;2022-10-23T15:54:16;19.80;99.90
21625;DHT22;10974;51.034;3.744;2022-10-23T15:56:45;19.60;99.90
21625;DHT22;10974;51.034;3.744;2022-10-23T15:59:11;19.60;99.90
21625;DHT22;10974;51.034;3.744;2022-10-23T16:01:37;19.90;99.90
21625;DHT22;10974;51.034;3.744;2022-10-23T16:04:03;20.10;99.90
21625;DHT22;10974;51.034;3.744;2022-10-23T16:06:28;20.20;99.90
21625;DHT22;10974;51.034;3.744;2022-10-23T16:08:54;20.30;99.90
21625;DHT22;10974;51.034;3.744;2022-10-23T16:11:21;20.30;99.90
21625;DHT22;10974;51.034;3.744;2022-10-23T16:13:48;20.50;99.90
21625;DHT22;10974;51.034;3.744;2022-10-23T16:16:14;20.60;99.90
21625;DHT22;10974;51.034;3.744;2022-10-23T16:18:40;20.70;99.90
21625;DHT22;10974;51.034;3.744;2022-10-23T16:21:25;20.70;99.90
21625;DHT22;10974;51.034;3.744;2022-10-23T16:23:52;20.70;99.90
21625;DHT22;10974;51.034;3.744;2022-10-23T16:26:19;20.70;99.90
21625;DHT22;10974;51.034;3.744;2022-10-23T16:28:45;20.70;99.90
21625;DHT22;10974;51.034;3.744;2022-10-23T16:31:13;20.70;99.90
21625;DHT22;10974;51.034;3.744;2022-10-23T16:33:39;20.70;99.90
21625;DHT22;10974;51.034;3.744;2022-10-23T16:36:06;20.50;99.90
21625;DHT22;10974;51.034;3.744;2022-10-23T16:38:32;20.40;99.90
21625;DHT22;10974;51.034;3.744;2022-10-23T16:40:58;20.30;99.90
21625;DHT22;10974;51.034;3.744;2022-10-23T16:43:25;20.30;99.90
21625;DHT22;10974;51.034;3.744;2022-10-23T16:46:01;20.30;99.90
21625;DHT22;10974;51.034;3.744;2022-10-23T16:48:28;20.30;99.90
21625;DHT22;10974;51.034;3.744;2022-10-23T16:50:54;20.30;99.90
21625;DHT22;10974;51.034;3.744;2022-10-23T16:53:19;20.20;99.90
21625;DHT22;10974;51.034;3.744;2022-10-23T16:55:45;20.30;99.90
21625;DHT22;10974;51.034;3.744;2022-10-23T16:58:10;20.20;99.90
21625;DHT22;10974;51.034;3.744;2022-10-23T17:00:36;20.20;99.90
21625;DHT22;10974;51.034;3.744;2022-10-23T17:03:03;20.10;99.90
21625;DHT22;10974;51.034;3.744;2022-10-23T17:05:32;20.20;99.90
21625;DHT22;10974;51.034;3.744;2022-10-23T17:08:00;20.10;99.90
21625;DHT22;10974;51.034;3.744;2022-10-23T17:10:25;20.10;99.90
21625;DHT22;10974;51.034;3.744;2022-10-23T17:12:51;20.10;99.90
21625;DHT22;10974;51.034;3.744;2022-10-23T17:15:17;20.20;99.90
21625;DHT22;10974;51.034;3.744;2022-10-23T17:17:45;20.00;99.90
21625;DHT22;10974;51.034;3.744;2022-10-23T17:20:11;19.80;99.90
21625;DHT22;10974;51.034;3.744;2022-10-23T17:22:37;19.70;99.90
21625;DHT22;10974;51.034;3.744;2022-10-23T17:25:04;19.70;99.90
21625;DHT22;10974;51.034;3.744;2022-10-23T17:27:30;19.80;99.90
21625;DHT22;10974;51.034;3.744;2022-10-23T17:29:56;19.80;99.90
21625;DHT22;10974;51.034;3.744;2022-10-23T17:32:22;19.70;99.90
21625;DHT22;10974;51.034;3.744;2022-10-23T17:34:48;19.70;99.90
21625;DHT22;10974;51.034;3.744;2022-10-23T17:37:13;19.80;99.90
21625;DHT22;10974;51.034;3.744;2022-10-23T17:39:40;19.80;99.90
21625;DHT22;10974;51.034;3.744;2022-10-23T17:42:06;19.80;99.90
21625;DHT22;10974;51.034;3.744;2022-10-23T17:44:31;19.80;99.90
21625;DHT22;10974;51.034;3.744;2022-10-23T17:46:57;19.70;99.90
21625;DHT22;10974;51.034;3.744;2022-10-23T17:49:23;19.70;99.90
21625;DHT22;10974;51.034;3.744;2022-10-23T17:51:54;19.80;99.90
21625;DHT22;10974;51.034;3.744;2022-10-23T17:54:20;19.80;99.90
21625;DHT22;10974;51.034;3.744;2022-10-23T17:56:45;19.70;99.90
21625;DHT22;10974;51.034;3.744;2022-10-23T17:59:13;19.60;99.90
21625;DHT22;10974;51.034;3.744;2022-10-23T18:01:39;19.60;99.90
21625;DHT22;10974;51.034;3.744;2022-10-23T18:04:07;19.50;99.90
21625;DHT22;10974;51.034;3.744;2022-10-23T18:06:35;19.50;99.90
21625;DHT22;10974;51.034;3.744;2022-10-23T18:09:03;19.60;99.90
21625;DHT22;10974;51.034;3.744;2022-10-23T18:11:33;19.50;99.90
21625;DHT22;10974;51.034;3.744;2022-10-23T18:13:59;19.60;99.90
21625;DHT22;10974;51.034;3.744;2022-10-23T18:16:26;19.50;99.90
21625;DHT22;10974;51.034;3.744;2022-10-23T18:18:52;19.50;99.90
21625;DHT22;10974;51.034;3.744;2022-10-23T18:21:19;19.60;99.90
21625;DHT22;10974;51.034;3.744;2022-10-23T18:23:46;19.60;99.90
21625;DHT22;10974;51.034;3.744;2022-10-23T18:28:46;19.80;99.90
21625;DHT22;10974;51.034;3.744;2022-10-23T18:31:13;19.80;99.90
21625;DHT22;10974;51.034;3.744;2022-10-23T18:33:39;19.80;99.90
21625;DHT22;10974;51.034;3.744;2022-10-23T18:36:17;19.80;99.90
21625;DHT22;10974;51.034;3.744;2022-10-23T18:38:43;19.70;69.20
21625;DHT22;10974;51.034;3.744;2022-10-23T18:41:09;19.60;99.90
21625;DHT22;10974;51.034;3.744;2022-10-23T18:43:35;19.50;99.90
21625;DHT22;10974;51.034;3.744;2022-10-23T18:46:01;19.40;99.90
21625;DHT22;10974;51.034;3.744;2022-10-23T18:48:27;19.40;99.90
21625;DHT22;10974;51.034;3.744;2022-10-23T18:50:52;19.30;99.90
21625;DHT22;10974;51.034;3.744;2022-10-23T18:53:18;19.40;99.90
21625;DHT22;10974;51.034;3.744;2022-10-23T18:55:45;19.40;99.90
21625;DHT22;10974;51.034;3.744;2022-10-23T18:58:11;19.30;99.90
21625;DHT22;10974;51.034;3.744;2022-10-23T19:00:39;19.20;99.90
21625;DHT22;10974;51.034;3.744;2022-10-23T19:03:05;19.30;99.90
21625;DHT22;10974;51.034;3.744;2022-10-23T19:05:30;19.20;99.90
21625;DHT22;10974;51.034;3.744;2022-10-23T19:07:57;19.40;99.90
21625;DHT22;10974;51.034;3.744;2022-10-23T19:10:25;19.40;99.90
21625;DHT22;10974;51.034;3.744;2022-10-23T19:12:53;19.30;99.90
21625;DHT22;10974;51.034;3.744;2022-10-23T19:15:18;19.30;99.90
21625;DHT22;10974;51.034;3.744;2022-10-23T19:17:44;19.20;99.90
21625;DHT22;10974;51.034;3.744;2022-10-23T19:20:13;19.00;99.90
21625;DHT22;10974;51.034;3.744;2022-10-23T19:22:42;19.00;99.90
21625;DHT22;10974;51.034;3.744;2022-10-23T19:25:24;18.90;99.90
21625;DHT22;10974;51.034;3.744;2022-10-23T19:27:51;19.00;99.90
21625;DHT22;10974;51.034;3.744;2022-10-23T19:30:19;18.80;99.90
21625;DHT22;10974;51.034;3.744;2022-10-23T19:32:47;18.80;99.90
21625;DHT22;10974;51.034;3.744;2022-10-23T19:35:15;18.70;99.90
21625;DHT22;10974;51.034;3.744;2022-10-23T19:37:41;18.80;99.90
21625;DHT22;10974;51.034;3.744;2022-10-23T19:40:07;18.70;99.90
21625;DHT22;10974;51.034;3.744;2022-10-23T19:42:35;18.80;99.90
21625;DHT22;10974;51.034;3.744;2022-10-23T19:45:07;18.70;99.90
21625;DHT22;10974;51.034;3.744;2022-10-23T19:47:33;18.80;99.90
21625;DHT22;10974;51.034;3.744;2022-10-23T19:49:59;18.90;99.90
21625;DHT22;10974;51.034;3.744;2022-10-23T19:52:25;18.70;99.90
21625;DHT22;10974;51.034;3.744;2022-10-23T19:54:51;18.70;99.90
21625;DHT22;10974;51.034;3.744;2022-10-23T19:57:16;18.70;99.90
21625;DHT22;10974;51.034;3.744;2022-10-23T19:59:47;18.90;99.90
21625;DHT22;10974;51.034;3.744;2022-10-23T20:02:13;19.10;99.90
21625;DHT22;10974;51.034;3.744;2022-10-23T20:04:38;19.20;99.90
21625;DHT22;10974;51.034;3.744;2022-10-23T20:07:04;19.10;99.90
21625;DHT22;10974;51.034;3.744;2022-10-23T20:09:30;18.90;99.90
21625;DHT22;10974;51.034;3.744;2022-10-23T20:11:55;19.00;99.90
21625;DHT22;10974;51.034;3.744;2022-10-23T20:14:21;19.00;99.90
21625;DHT22;10974;51.034;3.744;2022-10-23T20:16:47;18.90;99.90
21625;DHT22;10974;51.034;3.744;2022-10-23T20:19:15;18.90;99.90
21625;DHT22;10974;51.034;3.744;2022-10-23T20:21:43;18.80;99.90
21625;DHT22;10974;51.034;3.744;2022-10-23T20:24:11;18.90;99.90
21625;DHT22;10974;51.034;3.744;2022-10-23T20:26:41;18.70;99.90
21625;DHT22;10974;51.034;3.744;2022-10-23T20:29:08;18.50;99.90
21625;DHT22;10974;51.034;3.744;2022-10-23T20:31:34;18.40;99.90
21625;DHT22;10974;51.034;3.744;2022-10-23T20:34:01;18.50;99.90
21625;DHT22;10974;51.034;3.744;2022-10-23T20:36:30;18.50;99.90
21625;DHT22;10974;51.034;3.744;2022-10-23T20:38:57;18.40;99.90
21625;DHT22;10974;51.034;3.744;2022-10-23T20:41:24;18.30;99.90
21625;DHT22;10974;51.034;3.744;2022-10-23T20:43:51;18.40;99.90
21625;DHT22;10974;51.034;3.744;2022-10-23T20:46:17;18.50;99.90
21625;DHT22;10974;51.034;3.744;2022-10-23T20:48:44;18.50;99.90
21625;DHT22;10974;51.034;3.744;2022-10-23T20:51:12;18.50;99.90
21625;DHT22;10974;51.034;3.744;2022-10-23T20:53:39;18.50;99.90
21625;DHT22;10974;51.034;3.744;2022-10-23T20:56:06;18.60;99.90